Time;durP1;ratioP1;P1;durP2;ratioP2;P2;SDS_P1;SDS_P2;PMS_P1;PMS_P2;Temp;Humidity;BMP_temperature;BMP_pressure;BME280_temperature;BME280_humidity;BME280_pressure;Samples;Min_cycle;Max_cycle;Signal;HPM_P1;HPM_P2
2022/05/16 08:34:09;;;;;;;2.88;1.17;;;26.10;98.20;;;;;;4143873;23;20273;-75
2022/05/16 08:42:09;;;;;;;3.17;1.58;;;25.30;99.40;;;;;;4926244;29;20243;-73
2022/05/16 08:44:43;;;;;;;2.08;1.20;;;25.40;99.20;;;;;;4935835;29;20260;-71
2022/05/16 08:47:17;;;;;;;3.45;1.40;;;25.80;99.40;;;;;;4935623;29;20693;-71
2022/05/16 08:49:49;;;;;;;2.45;1.23;;;26.20;99.00;;;;;;4935445;29;20679;-72
2022/05/16 08:52:26;;;;;;;2.50;1.20;;;26.20;98.70;;;;;;4927458;29;20312;-69
2022/05/16 08:54:58;;;;;;;3.67;1.40;;;25.70;99.40;;;;;;4935724;29;20218;-73
2022/05/16 08:57:31;;;;;;;3.85;1.58;;;25.50;99.90;;;;;;4935400;29;20215;-69
2022/05/16 09:00:03;;;;;;;2.83;1.58;;;25.00;99.90;;;;;;4935317;29;20664;-74
2022/05/16 09:02:32;;;;;;;7.15;2.03;;;24.50;99.90;;;;;;4934965;29;20692;-74
2022/05/16 09:05:12;;;;;;;3.70;1.60;;;24.40;99.90;;;;;;4935469;29;20209;-74
2022/05/16 09:07:43;;;;;;;1.85;1.40;;;24.20;99.90;;;;;;4935080;29;20212;-69
2022/05/16 09:10:12;;;;;;;1.92;1.20;;;24.10;99.90;;;;;;4935243;29;20212;-71
2022/05/16 09:12:47;;;;;;;1.55;1.20;;;24.30;99.90;;;;;;4935165;29;20211;-70
2022/05/16 09:15:25;;;;;;;4.32;1.70;;;24.40;99.90;;;;;;4935408;29;20208;-72
2022/05/16 09:18:10;;;;;;;2.95;1.20;;;24.50;99.90;;;;;;4935437;29;20212;-69
2022/05/16 09:20:50;;;;;;;3.88;1.80;;;24.70;99.90;;;;;;4935249;29;20224;-72
2022/05/16 09:23:28;;;;;;;2.20;1.63;;;24.70;99.90;;;;;;4922102;29;20247;-71
2022/05/16 09:26:05;;;;;;;3.05;1.58;;;24.70;99.90;;;;;;4933819;29;20215;-74
2022/05/16 09:28:37;;;;;;;1.88;1.58;;;24.60;99.90;;;;;;4933609;29;20196;-72
2022/05/16 09:31:11;;;;;;;4.15;1.70;;;24.60;99.90;;;;;;4933551;29;20252;-84
2022/05/16 09:33:43;;;;;;;4.88;1.67;;;24.90;99.90;;;;;;4934170;29;20231;-70
2022/05/16 09:36:14;;;;;;;4.68;1.83;;;25.10;99.90;;;;;;4934055;29;20219;-71
2022/05/16 09:38:44;;;;;;;3.78;2.00;;;25.00;99.90;;;;;;4933452;29;20687;-78
2022/05/16 09:41:17;;;;;;;4.25;1.73;;;24.80;99.90;;;;;;4933142;29;20236;-73
2022/05/16 09:43:51;;;;;;;4.65;1.63;;;24.90;99.90;;;;;;4936511;29;20303;-72
2022/05/16 09:46:37;;;;;;;3.28;2.00;;;24.70;99.90;;;;;;4936743;29;20231;-72
2022/05/16 09:49:11;;;;;;;2.85;1.85;;;24.20;99.90;;;;;;4938171;29;20209;-71
2022/05/16 09:51:49;;;;;;;5.55;2.08;;;24.20;99.90;;;;;;4937264;29;20234;-71
2022/05/16 09:54:24;;;;;;;2.47;1.95;;;23.90;99.90;;;;;;4937850;29;20213;-71
2022/05/16 09:57:05;;;;;;;3.92;1.90;;;23.70;99.90;;;;;;4934413;29;20208;-72
2022/05/16 09:59:38;;;;;;;5.15;2.40;;;23.60;99.90;;;;;;4938222;29;20702;-72
2022/05/16 10:02:13;;;;;;;9.48;2.67;;;23.40;99.90;;;;;;4938558;29;20237;-75
2022/05/16 10:04:43;;;;;;;4.07;2.55;;;23.30;99.90;;;;;;4938676;29;20208;-70
2022/05/16 10:07:12;;;;;;;4.30;2.08;;;23.20;99.90;;;;;;4938679;29;20213;-75
2022/05/16 10:09:44;;;;;;;2.70;2.10;;;23.20;99.90;;;;;;4938789;29;20213;-71
2022/05/16 10:12:12;;;;;;;3.75;2.10;;;23.40;99.90;;;;;;4938014;29;20599;-71
2022/05/16 10:14:41;;;;;;;3.50;2.25;;;23.80;99.90;;;;;;4938177;29;20209;-68
2022/05/16 10:17:11;;;;;;;3.90;2.63;;;23.80;99.90;;;;;;4938197;29;20213;-70
2022/05/16 10:19:40;;;;;;;3.90;2.17;;;23.60;99.90;;;;;;4938025;29;20211;-71
2022/05/16 10:22:15;;;;;;;2.67;2.20;;;23.40;99.90;;;;;;4938440;29;20225;-68
2022/05/16 10:24:45;;;;;;;6.95;2.30;;;23.10;99.90;;;;;;4938140;29;20204;-69
2022/05/16 10:27:13;;;;;;;3.28;2.30;;;22.90;99.90;;;;;;4938703;29;20612;-71
2022/05/16 10:29:43;;;;;;;3.88;2.35;;;22.70;99.90;;;;;;4938461;29;20559;-73
2022/05/16 10:35:03;;;;;;;4.97;2.63;;;22.60;99.90;;;;;;4938257;29;20235;-74
2022/05/16 10:37:33;;;;;;;4.05;2.40;;;22.50;99.90;;;;;;4938044;29;20605;-72
2022/05/16 10:40:23;;;;;;;4.07;2.30;;;22.60;99.90;;;;;;4938429;29;20271;-76
2022/05/16 10:42:55;;;;;;;4.40;2.83;;;22.60;99.90;;;;;;4938480;29;20236;-74
2022/05/16 10:45:26;;;;;;;5.65;2.70;;;22.70;99.90;;;;;;4938551;29;20211;-69
2022/05/16 10:48:05;;;;;;;3.30;2.38;;;22.70;99.90;;;;;;4937974;29;20219;-69
2022/05/16 10:50:39;;;;;;;4.15;2.75;;;22.80;99.90;;;;;;4937752;29;20228;-73
2022/05/16 10:53:13;;;;;;;4.78;2.40;;;23.00;99.90;;;;;;4938017;29;20307;-75
2022/05/16 10:55:44;;;;;;;5.28;1.95;;;23.40;99.90;;;;;;4937521;29;20324;-76
2022/05/16 10:58:21;;;;;;;19.05;3.13;;;23.80;99.90;;;;;;4938283;29;20700;-68
2022/05/16 11:00:56;;;;;;;3.63;2.05;;;24.10;99.90;;;;;;4938182;29;20236;-73
2022/05/16 11:03:44;;;;;;;3.13;2.08;;;24.50;99.90;;;;;;4937953;29;20242;-72
2022/05/16 11:06:37;;;;;;;2.70;1.50;;;24.90;99.90;;;;;;4941240;29;20212;-68
2022/05/16 11:09:10;;;;;;;4.50;1.75;;;24.90;99.90;;;;;;4917783;29;20265;-71
2022/05/16 11:11:46;;;;;;;3.30;1.30;;;24.90;99.90;;;;;;4917951;29;20265;-71
2022/05/16 11:14:19;;;;;;;2.17;1.33;;;24.80;99.90;;;;;;4917574;29;20653;-73
2022/05/16 11:16:50;;;;;;;4.93;1.55;;;24.60;99.90;;;;;;4934558;29;20212;-71
2022/05/16 11:19:27;;;;;;;2.95;1.40;;;24.60;99.90;;;;;;4936409;29;20213;-68
2022/05/16 11:22:08;;;;;;;2.92;1.60;;;24.90;99.90;;;;;;4936083;29;20725;-71
2022/05/16 11:24:44;;;;;;;3.35;1.60;;;24.90;99.90;;;;;;4936048;29;20723;-71
2022/05/16 11:27:19;;;;;;;5.22;1.73;;;24.60;99.90;;;;;;4936153;29;20264;-73
2022/05/16 11:29:53;;;;;;;2.25;1.40;;;24.80;99.90;;;;;;4936250;29;20212;-72
2022/05/16 11:32:43;;;;;;;3.75;1.55;;;24.70;99.90;;;;;;4936111;29;20232;-76
2022/05/16 11:35:16;;;;;;;1.92;1.25;;;24.90;99.90;;;;;;4935462;29;20244;-78
2022/05/16 11:38:02;;;;;;;2.45;1.30;;;25.10;99.90;;;;;;4935623;29;20676;-70
2022/05/16 11:40:37;;;;;;;3.03;1.15;;;25.20;99.20;;;;;;4917325;29;20288;-69
2022/05/16 11:43:13;;;;;;;2.28;1.65;;;25.10;99.20;;;;;;4917140;29;20723;-70
2022/05/16 11:46:04;;;;;;;3.58;1.77;;;25.10;99.30;;;;;;4916988;29;20220;-72
2022/05/16 11:48:39;;;;;;;3.25;1.30;;;24.80;99.30;;;;;;4923150;29;20568;-72
2022/05/16 11:51:15;;;;;;;1.45;1.08;;;24.70;99.90;;;;;;4935518;29;20240;-68
2022/05/16 11:53:47;;;;;;;2.35;1.42;;;24.70;99.80;;;;;;4935311;29;20251;-72
2022/05/16 12:02:18;;;;;;;4.75;1.75;;;24.90;99.80;;;;;;4918474;29;20228;-69
2022/05/16 12:04:47;;;;;;;4.75;1.63;;;24.80;99.90;;;;;;4935219;29;20591;-72
2022/05/16 12:07:29;;;;;;;2.50;1.48;;;25.00;99.90;;;;;;4935922;29;20223;-71
2022/05/16 12:10:01;;;;;;;2.67;1.55;;;25.20;99.80;;;;;;4935332;29;20304;-73
2022/05/16 12:12:40;;;;;;;5.65;1.60;;;25.00;99.50;;;;;;4935665;29;20228;-73
2022/05/16 12:15:34;;;;;;;2.63;1.33;;;24.90;99.60;;;;;;4934875;29;20213;-70
2022/05/16 12:18:03;;;;;;;3.40;1.27;;;24.50;99.90;;;;;;4901416;29;20209;-75
2022/05/16 12:20:38;;;;;;;4.30;1.35;;;24.20;99.60;;;;;;4935010;29;20711;-71
2022/05/16 12:23:08;;;;;;;2.72;1.10;;;24.20;99.90;;;;;;4934652;29;20706;-72
2022/05/16 12:25:37;;;;;;;3.20;1.30;;;24.10;99.90;;;;;;4935063;29;20528;-74
2022/05/16 12:28:29;;;;;;;6.75;1.65;;;24.00;99.90;;;;;;4935438;29;20208;-76
2022/05/16 12:30:58;;;;;;;2.15;1.20;;;24.00;99.90;;;;;;4934347;29;20565;-74
2022/05/16 12:33:51;;;;;;;4.50;1.50;;;24.00;99.90;;;;;;4935107;29;20217;-68
2022/05/16 12:36:20;;;;;;;2.88;1.25;;;24.20;99.90;;;;;;4934989;29;20209;-69
2022/05/16 12:38:50;;;;;;;3.28;1.30;;;24.30;99.80;;;;;;4934446;29;20671;-71
2022/05/16 12:41:44;;;;;;;4.47;1.00;;;24.10;99.50;;;;;;4935351;29;20574;-72
2022/05/16 12:44:26;;;;;;;1.90;1.20;;;24.00;99.90;;;;;;4935406;29;20228;-72
2022/05/16 12:47:15;;;;;;;3.05;1.55;;;23.70;99.90;;;;;;4935291;29;20208;-73
2022/05/16 12:49:53;;;;;;;3.28;1.10;;;23.60;99.90;;;;;;4934859;29;20215;-69
2022/05/16 12:52:48;;;;;;;4.10;1.20;;;23.70;99.90;;;;;;4934537;29;20229;-79
2022/05/16 12:55:47;;;;;;;2.67;1.00;;;23.80;99.90;;;;;;4934703;29;20209;-70
2022/05/16 12:58:20;;;;;;;2.47;1.10;;;24.00;99.90;;;;;;4929941;29;20215;-74
2022/05/16 13:00:52;;;;;;;2.30;1.17;;;24.10;99.90;;;;;;4946837;28;20234;-73
2022/05/16 13:03:38;;;;;;;5.85;1.25;;;24.70;99.90;;;;;;4945626;28;20236;-72
2022/05/16 13:06:11;;;;;;;1.15;1.05;;;25.20;99.10;;;;;;4934450;29;20209;-76
2022/05/16 13:08:45;;;;;;;2.42;1.17;;;25.60;98.20;;;;;;4934290;29;20212;-75
2022/05/16 13:11:21;;;;;;;15.63;2.58;;;25.80;98.40;;;;;;4935277;29;20695;-72
2022/05/16 13:14:07;;;;;;;4.60;1.00;;;26.00;97.80;;;;;;4935736;29;20218;-77
2022/05/16 13:16:38;;;;;;;15.20;1.92;;;25.90;98.00;;;;;;4934594;29;20920;-80
2022/05/16 13:19:17;;;;;;;2.22;0.90;;;25.60;97.70;;;;;;4936060;29;20211;-73
2022/05/16 13:21:53;;;;;;;1.83;1.30;;;25.40;97.70;;;;;;4930619;29;20312;-80
2022/05/16 13:24:21;;;;;;;3.85;0.98;;;25.20;98.00;;;;;;4935845;29;20236;-77
2022/05/16 13:29:36;;;;;;;2.85;0.80;;;24.80;98.60;;;;;;4935725;29;20288;-75
2022/05/16 13:32:12;;;;;;;2.97;1.13;;;24.70;99.10;;;;;;4935237;29;20239;-72
2022/05/16 13:34:45;;;;;;;1.98;0.70;;;24.80;99.30;;;;;;4935172;29;20220;-71
2022/05/16 13:37:13;;;;;;;4.00;1.10;;;24.60;99.30;;;;;;4935353;29;20204;-74
2022/05/16 13:39:43;;;;;;;2.78;0.90;;;24.70;99.20;;;;;;4937967;29;20207;-73
2022/05/16 13:42:10;;;;;;;1.48;0.82;;;24.60;99.70;;;;;;4938866;28;20237;-75
2022/05/16 13:44:38;;;;;;;2.95;1.30;;;24.70;99.20;;;;;;4933607;29;20236;-73
2022/05/16 13:47:07;;;;;;;2.50;0.90;;;24.80;99.50;;;;;;4933113;29;20679;-72
2022/05/16 13:49:35;;;;;;;4.22;0.90;;;24.90;98.90;;;;;;4933608;29;20603;-72
2022/05/16 13:52:03;;;;;;;1.30;0.75;;;25.10;98.70;;;;;;4933162;29;20267;-73
2022/05/16 13:54:31;;;;;;;2.15;0.98;;;25.00;98.40;;;;;;4933262;29;20208;-74
2022/05/16 13:57:01;;;;;;;1.73;0.70;;;24.70;98.50;;;;;;4933808;29;20208;-76
2022/05/16 13:59:30;;;;;;;2.47;1.05;;;24.80;99.00;;;;;;4933646;29;20565;-69
2022/05/16 14:02:03;;;;;;;3.53;1.15;;;24.70;98.20;;;;;;4933014;29;20268;-76
2022/05/16 14:04:33;;;;;;;1.90;0.60;;;24.60;98.30;;;;;;4934266;29;20264;-78
2022/05/16 14:07:09;;;;;;;1.98;0.70;;;24.50;98.40;;;;;;4934467;29;20235;-72
2022/05/16 14:09:43;;;;;;;2.95;0.80;;;24.70;98.10;;;;;;4935184;29;20204;-72
2022/05/16 14:12:14;;;;;;;1.55;0.80;;;24.60;97.60;;;;;;4935317;29;20300;-72
2022/05/16 14:14:42;;;;;;;3.55;0.90;;;24.70;97.80;;;;;;4935439;29;20209;-72
2022/05/16 14:17:10;;;;;;;2.85;0.75;;;24.90;98.00;;;;;;4935269;29;20672;-71
2022/05/16 14:19:42;;;;;;;2.03;0.68;;;24.90;97.40;;;;;;4935562;29;20216;-72
2022/05/16 14:22:13;;;;;;;4.97;0.95;;;24.80;97.30;;;;;;4935346;29;20288;-72
2022/05/16 14:24:49;;;;;;;2.70;0.80;;;24.70;97.60;;;;;;4935154;29;20241;-72
2022/05/16 14:27:32;;;;;;;3.20;0.85;;;24.80;97.80;;;;;;4934782;29;20211;-72
2022/05/16 14:30:01;;;;;;;1.55;0.60;;;24.80;97.50;;;;;;4938365;29;20302;-72
2022/05/16 14:32:31;;;;;;;1.67;0.60;;;24.70;97.80;;;;;;4938819;29;20229;-72
2022/05/16 14:35:05;;;;;;;1.77;0.47;;;24.50;97.20;;;;;;4950778;23;20312;-74
2022/05/16 14:37:37;;;;;;;0.70;0.45;;;24.20;97.80;;;;;;4938336;29;20683;-75
2022/05/16 14:40:14;;;;;;;0.98;0.40;;;24.20;97.90;;;;;;4938261;29;20312;-74
2022/05/16 14:42:41;;;;;;;3.53;0.88;;;24.10;98.20;;;;;;4919394;29;20210;-78
2022/05/16 14:45:12;;;;;;;2.75;1.02;;;24.20;98.20;;;;;;4919192;29;20237;-75
2022/05/16 14:47:41;;;;;;;0.68;0.47;;;24.40;97.80;;;;;;4919326;29;20209;-76
2022/05/16 14:50:09;;;;;;;0.90;0.57;;;24.50;97.50;;;;;;4919490;29;20216;-75
2022/05/16 14:52:40;;;;;;;3.25;0.60;;;24.60;97.80;;;;;;4919197;29;20214;-75
2022/05/16 14:55:10;;;;;;;4.78;0.93;;;24.60;97.80;;;;;;4919210;29;20672;-77
2022/05/16 14:57:37;;;;;;;1.55;0.50;;;24.50;98.30;;;;;;4919116;29;20236;-75
2022/05/16 15:05:40;;;;;;;2.90;0.60;;;24.40;97.50;;;;;;4918792;29;20455;-75
2022/05/16 15:08:09;;;;;;;1.45;0.75;;;24.40;97.80;;;;;;4918902;29;20220;-75
2022/05/16 15:10:36;;;;;;;1.33;0.68;;;24.60;98.00;;;;;;4918866;29;20233;-75
2022/05/16 15:13:03;;;;;;;3.35;0.70;;;24.90;97.50;;;;;;4918848;29;20214;-75
2022/05/16 15:15:30;;;;;;;2.28;0.85;;;24.90;97.60;;;;;;4918535;29;20214;-75
2022/05/16 15:17:57;;;;;;;4.13;1.20;;;24.70;97.10;;;;;;4918719;29;20597;-75
2022/05/16 15:20:24;;;;;;;3.05;0.88;;;24.60;97.30;;;;;;4918661;29;20216;-75
2022/05/16 15:22:51;;;;;;;5.97;0.70;;;24.70;96.60;;;;;;4918473;29;20691;-75
2022/05/16 15:25:19;;;;;;;4.20;0.68;;;24.70;96.10;;;;;;4918703;29;20259;-75
2022/05/16 15:27:46;;;;;;;2.80;0.43;;;24.60;96.40;;;;;;4918596;29;20216;-75
2022/05/16 15:30:13;;;;;;;1.05;0.40;;;24.70;95.80;;;;;;4918645;29;20220;-75
2022/05/16 15:32:40;;;;;;;1.20;0.43;;;24.70;96.10;;;;;;4918905;29;20205;-75
2022/05/16 15:35:08;;;;;;;2.70;0.60;;;24.80;96.30;;;;;;4918346;29;20309;-75
2022/05/16 15:37:35;;;;;;;1.67;0.90;;;24.90;96.40;;;;;;4918511;29;20213;-75
2022/05/16 15:40:03;;;;;;;1.15;0.45;;;25.10;96.00;;;;;;4913028;29;20226;-75
2022/05/16 15:42:31;;;;;;;3.00;0.68;;;25.10;95.10;;;;;;4916874;29;20216;-74
2022/05/16 15:45:02;;;;;;;0.73;0.32;;;25.00;95.30;;;;;;4918265;29;20240;-75
2022/05/16 15:47:32;;;;;;;2.17;0.70;;;24.90;95.00;;;;;;4918479;29;20214;-75
2022/05/16 15:50:00;;;;;;;2.55;1.15;;;24.90;94.70;;;;;;4917758;29;20716;-74
2022/05/16 15:52:28;;;;;;;5.70;0.60;;;24.90;94.90;;;;;;4918079;29;20233;-74
2022/05/16 15:54:55;;;;;;;1.73;0.50;;;25.00;95.00;;;;;;4918394;29;20221;-75
2022/05/16 15:57:22;;;;;;;6.88;1.02;;;25.00;95.00;;;;;;4917829;29;20213;-75
2022/05/16 15:59:50;;;;;;;2.15;0.30;;;25.10;94.10;;;;;;4917810;29;20537;-77
2022/05/16 16:02:19;;;;;;;0.82;0.50;;;24.80;94.30;;;;;;4917805;29;20257;-77
2022/05/16 16:10:17;;;;;;;1.20;0.57;;;24.20;94.70;;;;;;4923498;29;20303;-81
2022/05/16 16:12:44;;;;;;;2.00;0.52;;;24.30;95.10;;;;;;4936904;29;20212;-83
2022/05/16 16:15:14;;;;;;;1.55;0.50;;;24.30;95.50;;;;;;4936609;29;20208;-79
2022/05/16 16:17:42;;;;;;;3.17;0.50;;;24.40;94.80;;;;;;4936816;29;20212;-76
2022/05/16 16:20:10;;;;;;;2.00;0.68;;;24.50;94.70;;;;;;4930360;29;20261;-77
2022/05/16 16:22:37;;;;;;;2.38;0.38;;;24.60;94.50;;;;;;4917387;29;20680;-77
2022/05/16 16:25:16;;;;;;;1.40;0.35;;;24.40;94.50;;;;;;4917571;29;20297;-78
2022/05/16 16:27:44;;;;;;;1.67;0.40;;;24.50;94.20;;;;;;4917215;29;20205;-77
2022/05/16 16:30:15;;;;;;;1.00;0.40;;;24.50;94.00;;;;;;4917417;29;20210;-78
2022/05/16 16:32:42;;;;;;;2.03;0.40;;;24.60;93.70;;;;;;4917496;29;20261;-75
2022/05/16 16:35:12;;;;;;;3.72;0.38;;;24.60;93.40;;;;;;4917266;29;20222;-76
2022/05/16 16:37:38;;;;;;;0.75;0.25;;;24.70;93.30;;;;;;4927438;29;20212;-76
2022/05/16 16:40:06;;;;;;;1.45;0.50;;;24.70;93.60;;;;;;4930786;29;20212;-76
2022/05/16 16:42:36;;;;;;;1.45;0.47;;;24.50;93.30;;;;;;4917197;29;20213;-76
2022/05/16 16:45:05;;;;;;;2.40;0.30;;;24.40;93.30;;;;;;4916825;29;20328;-75
2022/05/16 16:47:35;;;;;;;2.38;0.47;;;24.30;93.70;;;;;;4917251;29;20265;-75
2022/05/16 16:50:02;;;;;;;2.97;0.50;;;24.20;94.00;;;;;;4922009;29;20232;-75
2022/05/16 16:57:58;;;;;;;2.38;0.52;;;24.40;93.70;;;;;;4936056;29;20663;-73
2022/05/16 17:00:26;;;;;;;2.28;0.50;;;24.40;93.60;;;;;;4927697;29;21604;-75
2022/05/16 17:02:56;;;;;;;1.15;0.50;;;24.30;93.60;;;;;;4917228;29;20232;-76
2022/05/16 17:05:25;;;;;;;0.85;0.32;;;24.30;93.20;;;;;;4925143;29;20255;-74
2022/05/16 17:07:56;;;;;;;2.53;0.52;;;24.20;92.90;;;;;;4935485;29;20209;-75
2022/05/16 17:10:28;;;;;;;1.45;0.40;;;24.20;93.30;;;;;;4914665;29;20202;-79
2022/05/16 17:12:55;;;;;;;0.57;0.38;;;24.20;93.30;;;;;;4905736;29;20257;-81
2022/05/16 17:15:22;;;;;;;0.90;0.40;;;24.20;93.30;;;;;;4908036;29;20202;-77
2022/05/16 17:17:52;;;;;;;2.53;0.50;;;24.20;93.00;;;;;;4915617;29;20205;-75
2022/05/16 17:20:20;;;;;;;1.75;0.52;;;24.10;93.40;;;;;;4916257;29;20217;-78
2022/05/16 17:22:47;;;;;;;1.88;0.40;;;23.90;92.90;;;;;;4914689;29;20213;-79
2022/05/16 17:25:14;;;;;;;0.93;0.40;;;23.80;93.20;;;;;;4913753;29;20233;-75
2022/05/16 17:27:41;;;;;;;2.35;0.43;;;23.80;93.00;;;;;;4915720;29;20205;-82
2022/05/16 17:30:11;;;;;;;0.98;0.30;;;23.80;93.10;;;;;;4913012;29;20237;-79
2022/05/16 17:32:38;;;;;;;1.35;0.40;;;23.80;93.30;;;;;;4915169;29;20212;-77
2022/05/16 17:35:06;;;;;;;2.63;0.47;;;23.80;93.80;;;;;;4914631;29;20275;-77
2022/05/16 17:37:34;;;;;;;1.10;0.50;;;23.70;93.70;;;;;;4915339;29;20204;-79
2022/05/16 17:40:01;;;;;;;2.10;0.30;;;23.70;94.40;;;;;;4914670;29;20202;-76
2022/05/16 17:42:28;;;;;;;2.88;0.60;;;23.70;93.50;;;;;;4916223;29;20229;-79
2022/05/16 17:44:55;;;;;;;0.77;0.40;;;23.50;94.20;;;;;;4914385;29;20233;-79
2022/05/16 17:47:23;;;;;;;1.67;0.52;;;23.50;94.30;;;;;;4915242;29;20212;-76
2022/05/16 17:49:50;;;;;;;2.05;0.30;;;23.40;94.10;;;;;;4915101;29;20197;-82
2022/05/16 17:52:20;;;;;;;2.25;0.30;;;23.40;94.00;;;;;;4915222;29;20249;-76
2022/05/16 17:54:50;;;;;;;0.40;0.30;;;23.50;94.80;;;;;;4915742;29;20217;-76
2022/05/16 17:57:19;;;;;;;1.75;0.40;;;23.40;94.10;;;;;;4916275;29;20209;-83
2022/05/16 17:59:47;;;;;;;3.25;0.40;;;23.40;93.90;;;;;;4915834;29;20699;-76
2022/05/16 18:02:18;;;;;;;1.05;0.30;;;23.40;93.90;;;;;;4904183;29;20226;-76
2022/05/16 18:04:45;;;;;;;0.73;0.40;;;23.30;93.80;;;;;;4900204;29;20244;-78
2022/05/16 18:07:11;;;;;;;1.10;0.30;;;23.30;94.00;;;;;;4901115;29;20211;-77
2022/05/16 18:09:38;;;;;;;0.63;0.28;;;23.30;93.70;;;;;;4900953;29;20221;-76
2022/05/16 18:14:53;;;;;;;1.83;0.30;;;23.20;94.00;;;;;;4900753;29;20681;-76
2022/05/16 18:17:20;;;;;;;3.47;0.40;;;23.10;94.30;;;;;;4901202;29;20206;-77
2022/05/16 18:19:46;;;;;;;1.10;0.35;;;23.00;94.10;;;;;;4901057;29;20312;-77
2022/05/16 18:22:20;;;;;;;0.77;0.40;;;22.80;94.00;;;;;;4901075;29;20262;-80
2022/05/16 18:24:47;;;;;;;0.77;0.38;;;22.70;94.30;;;;;;4905384;29;20233;-77
2022/05/16 18:27:15;;;;;;;0.90;0.40;;;22.80;94.20;;;;;;4906576;29;20574;-77
2022/05/16 18:29:42;;;;;;;2.42;0.70;;;22.80;94.00;;;;;;4904387;29;20836;-76
2022/05/16 18:32:10;;;;;;;1.52;0.50;;;22.70;94.40;;;;;;4919215;29;20232;-79
2022/05/16 18:34:37;;;;;;;0.40;0.20;;;22.60;94.30;;;;;;4918563;29;20221;-76
2022/05/16 18:37:04;;;;;;;0.65;0.30;;;22.60;94.60;;;;;;4919202;29;20213;-76
2022/05/16 18:39:31;;;;;;;1.48;0.40;;;22.50;94.40;;;;;;4918909;29;20214;-78
2022/05/16 18:52:57;;;;;;;2.25;0.40;;;22.20;95.20;;;;;;4911432;29;20256;-77
2022/05/16 18:55:26;;;;;;;1.23;0.73;;;22.20;95.30;;;;;;4918021;29;20214;-77
2022/05/16 18:57:58;;;;;;;0.55;0.50;;;22.20;95.30;;;;;;4917991;29;20239;-76
2022/05/16 19:00:26;;;;;;;1.10;0.40;;;22.20;95.20;;;;;;4918485;29;20213;-77
2022/05/16 19:02:54;;;;;;;0.52;0.40;;;22.20;95.20;;;;;;4918944;29;20209;-77
2022/05/16 19:05:21;;;;;;;2.28;0.43;;;22.10;95.30;;;;;;4901728;29;20241;-77
2022/05/16 19:07:48;;;;;;;2.03;0.40;;;22.00;95.50;;;;;;4900007;29;20306;-77
2022/05/16 19:10:15;;;;;;;1.38;0.30;;;21.90;95.70;;;;;;4899875;29;20214;-77
2022/05/16 19:12:46;;;;;;;2.15;0.63;;;21.80;95.80;;;;;;4899689;29;20214;-77
2022/05/16 19:15:15;;;;;;;0.88;0.35;;;21.80;95.80;;;;;;4898517;29;20242;-77
2022/05/16 19:17:44;;;;;;;1.50;0.40;;;21.70;95.80;;;;;;4899705;29;20578;-77
2022/05/16 19:20:12;;;;;;;1.77;0.47;;;21.60;95.90;;;;;;4899859;29;20211;-77
2022/05/16 19:22:38;;;;;;;0.88;0.30;;;21.60;96.30;;;;;;4899632;29;20206;-77
2022/05/16 19:25:07;;;;;;;1.02;0.40;;;21.50;96.30;;;;;;4899728;29;20238;-77
2022/05/16 19:27:34;;;;;;;0.88;0.30;;;21.40;96.70;;;;;;4899912;29;20221;-77
2022/05/16 19:32:47;;;;;;;1.40;0.50;;;21.40;96.70;;;;;;4899673;29;20213;-77
2022/05/16 19:35:14;;;;;;;2.15;0.88;;;21.30;96.70;;;;;;4899198;29;20689;-77
2022/05/16 19:37:42;;;;;;;3.50;0.50;;;21.30;97.30;;;;;;4899187;29;20207;-74
2022/05/16 19:40:10;;;;;;;4.93;0.52;;;21.20;97.30;;;;;;4899207;29;20221;-77
2022/05/16 19:42:37;;;;;;;2.95;0.40;;;21.20;97.10;;;;;;4899477;29;20214;-74
2022/05/16 19:45:04;;;;;;;1.95;0.38;;;21.20;97.20;;;;;;4901024;29;20206;-74
2022/05/16 19:47:31;;;;;;;1.20;0.50;;;21.10;97.30;;;;;;4906242;29;20254;-78
2022/05/16 19:49:59;;;;;;;1.27;0.40;;;21.10;97.40;;;;;;4912100;29;20662;-78
2022/05/16 19:52:26;;;;;;;2.22;0.50;;;21.00;97.80;;;;;;4911667;29;20225;-76
2022/05/16 19:54:53;;;;;;;1.25;0.30;;;20.90;97.90;;;;;;4906826;29;20214;-78
2022/05/16 19:57:20;;;;;;;2.00;0.45;;;20.90;97.90;;;;;;4911061;29;20219;-77
2022/05/16 19:59:49;;;;;;;2.03;0.57;;;20.80;98.50;;;;;;4911318;29;20211;-77
2022/05/16 20:02:16;;;;;;;2.28;0.70;;;20.70;99.00;;;;;;4913199;29;20273;-77
2022/05/16 20:04:44;;;;;;;2.45;0.35;;;20.50;99.20;;;;;;4901774;29;20206;-77
2022/05/16 20:07:12;;;;;;;1.75;0.52;;;20.40;99.70;;;;;;4911749;29;20304;-77
2022/05/16 20:09:38;;;;;;;3.00;0.43;;;20.30;99.40;;;;;;4910696;29;20217;-77
2022/05/16 20:12:06;;;;;;;1.05;0.50;;;20.20;99.90;;;;;;4913779;29;20233;-78
2022/05/16 20:14:33;;;;;;;3.92;0.50;;;20.10;99.90;;;;;;4907324;29;20214;-78
2022/05/16 20:17:00;;;;;;;2.05;0.50;;;20.00;99.90;;;;;;4911745;29;20218;-77
2022/05/16 20:19:27;;;;;;;1.05;0.43;;;19.90;99.90;;;;;;4909971;29;20669;-76
2022/05/16 20:27:24;;;;;;;1.25;0.40;;;19.80;99.90;;;;;;4910936;29;20717;-78
2022/05/16 20:29:51;;;;;;;1.48;0.60;;;19.70;99.90;;;;;;4912304;29;20210;-77
2022/05/16 20:32:18;;;;;;;3.05;0.68;;;19.70;99.90;;;;;;4914032;29;20233;-78
2022/05/16 20:34:45;;;;;;;4.32;0.77;;;19.60;99.90;;;;;;4913128;29;20387;-77
2022/05/16 20:37:12;;;;;;;1.60;0.50;;;19.40;99.90;;;;;;4909652;29;20210;-77
2022/05/16 20:39:40;;;;;;;2.60;0.50;;;19.30;99.90;;;;;;4911473;29;20241;-77
2022/05/16 20:42:10;;;;;;;1.00;0.47;;;19.20;99.90;;;;;;4915611;29;20229;-78
2022/05/16 20:44:37;;;;;;;1.08;0.50;;;19.10;99.90;;;;;;4908406;29;20210;-77
2022/05/16 20:47:04;;;;;;;0.60;0.40;;;19.10;99.90;;;;;;4904819;29;20241;-78
2022/05/16 20:49:31;;;;;;;2.57;0.70;;;19.00;99.90;;;;;;4909043;29;20261;-78
2022/05/16 20:51:58;;;;;;;1.25;0.60;;;18.90;99.90;;;;;;4910739;29;20329;-77
2022/05/16 20:54:26;;;;;;;1.30;0.50;;;18.80;99.90;;;;;;4905471;29;20739;-78
2022/05/16 20:56:54;;;;;;;4.00;0.63;;;18.80;99.90;;;;;;4913408;29;20752;-76
2022/05/16 20:59:21;;;;;;;1.08;0.50;;;18.80;99.90;;;;;;4912771;29;20696;-77
2022/05/16 21:01:48;;;;;;;2.88;0.68;;;18.70;99.90;;;;;;4915399;29;20570;-76
2022/05/16 21:04:15;;;;;;;0.80;0.50;;;18.70;99.90;;;;;;4906898;29;20221;-77
2022/05/16 21:06:42;;;;;;;3.03;0.77;;;18.60;99.90;;;;;;4911072;29;20247;-77
2022/05/16 21:09:09;;;;;;;2.47;0.70;;;18.60;99.90;;;;;;4912743;29;20213;-78
2022/05/16 21:11:36;;;;;;;2.00;0.40;;;18.40;99.90;;;;;;4908086;29;20759;-78
2022/05/16 21:14:04;;;;;;;1.70;1.03;;;18.30;99.90;;;;;;4905121;29;20214;-76
2022/05/16 21:16:30;;;;;;;1.47;0.60;;;18.20;99.90;;;;;;4908128;29;20218;-77
2022/05/16 21:18:57;;;;;;;0.97;0.70;;;18.20;99.90;;;;;;4910605;29;20217;-76
2022/05/16 21:21:24;;;;;;;1.27;0.60;;;18.10;99.90;;;;;;4903472;29;20767;-77
2022/05/16 21:23:51;;;;;;;1.53;0.60;;;18.10;99.90;;;;;;4910369;29;20210;-78
2022/05/16 21:26:19;;;;;;;4.17;0.73;;;18.10;99.90;;;;;;4913021;29;20742;-77
2022/05/16 21:28:46;;;;;;;1.73;0.80;;;18.00;99.90;;;;;;4912972;29;20205;-77
2022/05/16 21:31:15;;;;;;;1.20;0.70;;;17.90;99.90;;;;;;4911697;29;20237;-77
2022/05/16 21:33:41;;;;;;;1.63;0.70;;;17.90;99.90;;;;;;4908937;29;20217;-78
2022/05/16 21:36:08;;;;;;;2.23;1.00;;;17.90;99.90;;;;;;4905645;29;20221;-77
2022/05/16 21:38:36;;;;;;;1.80;0.63;;;17.90;99.90;;;;;;4912723;29;20212;-78
2022/05/16 21:41:03;;;;;;;1.00;0.63;;;17.90;99.90;;;;;;4910421;29;20229;-77
2022/05/16 21:46:15;;;;;;;2.83;0.90;;;17.90;99.90;;;;;;4913548;29;20236;-77
2022/05/16 21:48:42;;;;;;;1.67;0.70;;;17.80;99.90;;;;;;4915538;29;20672;-77
2022/05/16 21:51:09;;;;;;;2.57;0.80;;;17.70;99.90;;;;;;4915705;29;20641;-77
2022/05/16 21:53:36;;;;;;;2.90;0.80;;;17.60;99.90;;;;;;4902545;29;20647;-77
2022/05/16 21:56:04;;;;;;;1.97;0.70;;;17.50;99.90;;;;;;4897628;29;20543;-77
2022/05/16 21:58:31;;;;;;;2.17;0.80;;;17.40;99.90;;;;;;4897778;29;20210;-77
